Time;durP1;ratioP1;P1;durP2;ratioP2;P2;SDS_P1;SDS_P2;PMS_P1;PMS_P2;Temp;Humidity;BMP_temperature;BMP_pressure;BME280_temperature;BME280_humidity;BME280_pressure;Samples;Min_cycle;Max_cycle;Signal;HPM_P1;HPM_P2
2023/03/01 00:01:56;;;;;;;4.93;2.45;;;;;;;3.42;67.36;100988.97;6347231;28;20036;-74
2023/03/01 00:04:57;;;;;;;8.95;2.35;;;;;;;3.37;67.12;100985.59;6351415;28;20051;-74
2023/03/01 00:07:58;;;;;;;4.65;2.42;;;;;;;3.38;67.69;100989.91;6351306;28;20040;-74
2023/03/01 00:11:02;;;;;;;4.53;2.50;;;;;;;3.42;67.70;100986.38;6350186;28;20043;-74
2023/03/01 00:14:06;;;;;;;3.40;2.28;;;;;;;3.36;67.61;100994.22;6349906;28;20050;-74
2023/03/01 00:17:07;;;;;;;4.95;2.38;;;;;;;3.33;67.38;100986.53;6349606;28;20534;-74
2023/03/01 00:20:10;;;;;;;2.75;1.98;;;;;;;3.32;67.35;100989.16;6360205;27;20042;-74
2023/03/01 00:23:13;;;;;;;2.13;1.80;;;;;;;3.28;68.16;100990.06;6376335;27;20510;-74
2023/03/01 00:26:16;;;;;;;8.15;2.72;;;;;;;3.42;68.03;100988.13;6376138;27;20043;-74
2023/03/01 00:29:17;;;;;;;4.68;2.22;;;;;;;3.36;68.01;100985.66;6375004;27;20217;-74
2023/03/01 00:32:18;;;;;;;6.53;2.50;;;;;;;3.20;67.30;100995.34;6375332;27;20066;-74
2023/03/01 00:35:18;;;;;;;5.53;2.58;;;;;;;3.17;68.00;100985.06;6376033;27;20035;-74
2023/03/01 00:38:19;;;;;;;11.43;2.03;;;;;;;3.27;67.72;100981.47;6375956;27;20387;-74
2023/03/01 00:41:23;;;;;;;3.60;2.55;;;;;;;3.26;67.70;100977.19;6374999;27;20039;-74
2023/03/01 00:44:24;;;;;;;3.97;1.75;;;;;;;3.31;66.99;100979.69;6375658;27;20051;-74
2023/03/01 00:47:29;;;;;;;2.72;1.95;;;;;;;3.17;67.91;100967.00;6374777;27;20039;-74
2023/03/01 00:50:30;;;;;;;2.95;1.98;;;;;;;3.15;67.07;100968.75;6374738;27;20043;-74
2023/03/01 00:53:31;;;;;;;3.63;2.15;;;;;;;3.18;67.80;100959.25;6375647;27;20088;-74
2023/03/01 00:56:32;;;;;;;4.25;2.60;;;;;;;3.14;67.52;100957.59;6375787;27;20035;-74
2023/03/01 00:59:34;;;;;;;2.67;1.92;;;;;;;3.09;67.45;100959.41;6374307;27;20047;-74
2023/03/01 01:02:35;;;;;;;2.63;1.60;;;;;;;3.17;67.41;100961.84;6375797;27;20114;-74
2023/03/01 01:05:36;;;;;;;3.60;2.17;;;;;;;3.30;67.76;100965.09;6375617;27;20035;-74
2023/03/01 01:08:37;;;;;;;2.03;1.58;;;;;;;3.23;67.25;100965.22;6363439;27;20039;-71
2023/03/01 01:11:38;;;;;;;3.40;2.30;;;;;;;3.18;67.31;100956.69;6348573;27;20043;-71
2023/03/01 01:14:38;;;;;;;4.40;2.90;;;;;;;3.26;66.85;100956.56;6358626;27;20039;-71
2023/03/01 01:17:40;;;;;;;4.95;2.97;;;;;;;3.13;67.78;100950.75;6374126;27;20368;-71
2023/03/01 01:20:43;;;;;;;4.75;2.05;;;;;;;3.20;67.81;100949.75;6352159;27;20070;-71
2023/03/01 01:23:46;;;;;;;3.40;2.15;;;;;;;3.28;66.66;100944.50;6351083;27;20040;-71
2023/03/01 01:26:49;;;;;;;3.70;1.98;;;;;;;3.16;67.73;100942.09;6373951;27;20043;-72
2023/03/01 01:29:50;;;;;;;10.07;3.38;;;;;;;3.18;67.64;100943.78;6372593;27;20498;-72
2023/03/01 01:32:55;;;;;;;4.55;1.90;;;;;;;3.15;68.00;100945.53;6372550;27;20146;-73
2023/03/01 01:35:56;;;;;;;3.60;2.10;;;;;;;3.04;67.78;100938.00;6357435;27;20499;-71
2023/03/01 01:38:58;;;;;;;5.72;1.70;;;;;;;3.11;67.51;100937.03;6346817;28;20533;-71
2023/03/01 01:42:00;;;;;;;1.50;1.38;;;;;;;2.99;67.56;100934.66;6352207;27;20058;-71
2023/03/01 01:45:28;;;;;;;5.05;2.13;;;;;;;3.08;68.61;100934.50;6373451;27;20122;-71
2023/03/01 01:48:40;;;;;;;2.88;2.00;;;;;;;3.06;67.83;100940.56;6353875;27;20054;-74
2023/03/01 01:51:47;;;;;;;;;;;;;;;2.96;68.15;100937.25;6349417;28;20075;-74
2023/03/01 01:55:03;;;;;;;5.43;2.47;;;;;;;2.90;68.12;100929.63;6347920;28;19920;-74
2023/03/01 01:58:07;;;;;;;7.13;2.60;;;;;;;2.81;68.14;100921.16;6348806;28;20051;-74
2023/03/01 02:01:09;;;;;;;2.25;1.48;;;;;;;3.02;68.87;100926.84;6347561;28;20046;-74
2023/03/01 02:04:11;;;;;;;2.00;1.48;;;;;;;2.98;68.71;100925.19;6357466;27;20118;-74
2023/03/01 02:07:18;;;;;;;2.38;1.45;;;;;;;3.08;68.73;100925.91;6374084;27;20050;-74
2023/03/01 02:10:22;;;;;;;4.95;2.33;;;;;;;2.96;67.98;100926.94;6374053;27;20046;-74
2023/03/01 02:13:23;;;;;;;6.47;1.67;;;;;;;2.89;68.62;100926.19;6372681;27;20057;-75
2023/03/01 02:16:26;;;;;;;8.23;1.98;;;;;;;2.83;68.27;100921.97;6373651;27;20035;-74
2023/03/01 02:19:58;;;;;;;6.60;2.22;;;;;;;2.81;68.97;100921.16;6372663;27;20055;-74
2023/03/01 02:23:00;;;;;;;3.05;1.75;;;;;;;2.82;68.94;100916.84;6349180;27;20487;-74
2023/03/01 02:26:38;;;;;;;2.35;1.75;;;;;;;2.72;68.40;100911.00;6371767;27;20045;-74
2023/03/01 02:29:40;;;;;;;4.88;2.00;;;;;;;2.72;68.15;100916.16;6359713;27;20138;-74
2023/03/01 02:32:41;;;;;;;4.65;2.85;;;;;;;2.67;68.62;100914.50;6372504;27;20070;-74
2023/03/01 02:35:42;;;;;;;4.82;1.85;;;;;;;2.75;68.77;100910.94;6372242;27;20119;-74
2023/03/01 02:38:44;;;;;;;4.82;2.60;;;;;;;2.73;69.13;100911.84;6373379;27;20399;-74
2023/03/01 02:41:53;;;;;;;2.67;2.03;;;;;;;2.68;68.33;100919.66;6368698;27;20543;-74
2023/03/01 02:44:54;;;;;;;4.93;2.72;;;;;;;2.63;69.04;100916.25;6371733;27;20039;-74
2023/03/01 02:47:56;;;;;;;3.53;2.65;;;;;;;2.70;69.29;100911.88;6371772;27;20497;-71
2023/03/01 02:51:12;;;;;;;2.80;2.10;;;;;;;2.59;69.36;100924.91;6370701;27;20039;-74
2023/03/01 02:54:13;;;;;;;4.65;2.63;;;;;;;2.61;69.60;100926.63;6372951;27;20068;-74
2023/03/01 02:57:15;;;;;;;4.93;2.25;;;;;;;2.52;70.23;100919.00;6371780;27;20046;-74
2023/03/01 03:00:20;;;;;;;3.55;2.58;;;;;;;2.68;69.10;100918.78;6346157;28;20047;-74
2023/03/01 03:03:21;;;;;;;4.55;2.53;;;;;;;2.71;69.17;100917.00;6347625;28;20416;-74
2023/03/01 03:06:22;;;;;;;2.67;2.15;;;;;;;2.63;69.24;100922.25;6347452;28;20044;-74
2023/03/01 03:09:23;;;;;;;4.88;2.80;;;;;;;2.57;69.53;100919.81;6347418;28;20494;-74
2023/03/01 03:12:24;;;;;;;3.00;1.95;;;;;;;2.53;68.77;100922.41;6346237;28;20045;-74
2023/03/01 03:15:26;;;;;;;3.42;2.30;;;;;;;2.51;68.98;100916.44;6347147;28;20040;-74
2023/03/01 03:18:27;;;;;;;2.00;1.58;;;;;;;2.37;69.73;100919.22;6346061;28;20040;-74
2023/03/01 03:21:28;;;;;;;3.40;2.30;;;;;;;2.46;69.08;100915.66;6345601;28;20043;-74
2023/03/01 03:24:37;;;;;;;3.30;1.95;;;;;;;2.44;69.05;100920.00;6345304;28;20539;-74
2023/03/01 03:27:41;;;;;;;2.17;1.55;;;;;;;2.30;68.71;100915.00;6347247;28;20075;-74
2023/03/01 03:30:44;;;;;;;5.88;2.13;;;;;;;2.27;69.42;100905.63;6345979;28;20067;-74
2023/03/01 03:33:44;;;;;;;3.53;2.55;;;;;;;2.20;69.45;100906.53;6346761;28;20044;-74
2023/03/01 03:36:45;;;;;;;2.88;2.28;;;;;;;2.12;69.39;100913.53;6374624;27;20471;-74
2023/03/01 03:39:46;;;;;;;2.83;2.15;;;;;;;2.23;69.88;100916.81;6377122;27;20073;-74
2023/03/01 03:42:48;;;;;;;5.25;2.00;;;;;;;2.24;69.09;100921.09;6376140;27;20142;-74
2023/03/01 03:45:50;;;;;;;3.15;1.98;;;;;;;2.30;69.50;100915.84;6376268;27;20114;-74
2023/03/01 03:48:51;;;;;;;2.83;1.92;;;;;;;2.31;69.25;100916.72;6377208;27;20384;-74
2023/03/01 03:51:52;;;;;;;9.05;2.83;;;;;;;2.36;68.96;100920.94;6373165;27;20120;-74
2023/03/01 03:54:58;;;;;;;4.75;2.55;;;;;;;2.38;69.16;100908.03;6351529;28;20071;-74
2023/03/01 03:58:06;;;;;;;2.47;1.48;;;;;;;2.27;69.27;100907.34;6350211;28;20046;-74
2023/03/01 04:01:07;;;;;;;3.20;1.85;;;;;;;2.21;69.63;100903.97;6350006;28;20089;-74
2023/03/01 04:04:08;;;;;;;3.15;1.77;;;;;;;2.12;68.90;100898.94;6350304;28;20043;-74
2023/03/01 04:07:08;;;;;;;5.50;3.08;;;;;;;2.09;69.07;100891.25;6351491;28;20044;-74
2023/03/01 04:10:12;;;;;;;2.60;1.65;;;;;;;2.14;69.79;100904.06;6350120;28;20043;-74
2023/03/01 04:13:21;;;;;;;3.90;2.15;;;;;;;2.18;68.74;100913.44;6350143;28;20047;-74
2023/03/01 04:16:23;;;;;;;2.28;1.85;;;;;;;2.12;69.33;100905.78;6351231;28;20104;-74
2023/03/01 04:19:24;;;;;;;2.90;2.00;;;;;;;2.06;68.94;100898.16;6366138;27;20043;-74
2023/03/01 04:22:29;;;;;;;4.68;2.40;;;;;;;2.18;68.64;100904.00;6351013;28;20384;-74
2023/03/01 04:25:30;;;;;;;4.57;2.15;;;;;;;2.23;69.02;100906.53;6350973;28;20405;-74
2023/03/01 04:28:34;;;;;;;11.82;2.10;;;;;;;2.18;68.61;100910.88;6350936;28;20051;-74
2023/03/01 04:31:35;;;;;;;3.28;1.95;;;;;;;2.30;69.40;100912.44;6359016;27;20139;-74
2023/03/01 04:34:38;;;;;;;5.13;2.13;;;;;;;2.32;68.73;100913.28;6373032;27;20043;-74
2023/03/01 04:37:38;;;;;;;6.25;2.30;;;;;;;2.26;68.82;100909.03;6376001;27;20043;-74
2023/03/01 04:40:43;;;;;;;3.80;2.58;;;;;;;2.21;69.14;100909.13;6363816;27;20063;-74
2023/03/01 04:43:44;;;;;;;4.32;1.75;;;;;;;2.07;68.86;100902.44;6352722;27;20082;-74
2023/03/01 04:46:44;;;;;;;4.22;1.45;;;;;;;1.91;69.77;100907.75;6375265;27;20047;-74
2023/03/01 04:49:45;;;;;;;3.70;2.10;;;;;;;1.91;69.13;100906.91;6375777;27;20043;-74
2023/03/01 04:52:48;;;;;;;3.55;2.17;;;;;;;2.05;69.05;100905.03;6375987;27;20179;-74
2023/03/01 04:55:48;;;;;;;3.80;1.42;;;;;;;2.08;70.04;100898.97;6375645;27;20047;-74
2023/03/01 04:58:52;;;;;;;4.20;2.13;;;;;;;2.13;69.68;100904.94;6375414;27;20035;-74
2023/03/01 05:01:55;;;;;;;2.45;1.77;;;;;;;2.07;69.32;100892.97;6373850;27;20039;-74
2023/03/01 05:04:58;;;;;;;3.22;2.13;;;;;;;2.20;68.80;100901.41;6374596;27;20509;-74
2023/03/01 05:08:01;;;;;;;4.28;2.80;;;;;;;2.22;69.75;100897.97;6374918;27;20047;-74
2023/03/01 05:11:08;;;;;;;1.77;1.42;;;;;;;2.16;69.14;100887.72;6354920;27;20044;-74
2023/03/01 05:14:09;;;;;;;5.32;3.10;;;;;;;2.26;69.22;100890.16;6361102;27;20113;-74
2023/03/01 05:17:12;;;;;;;8.25;2.35;;;;;;;2.13;68.90;100884.34;6374517;27;20050;-74
2023/03/01 05:20:14;;;;;;;2.63;1.70;;;;;;;2.18;69.11;100888.56;6374901;27;20043;-74
2023/03/01 05:23:18;;;;;;;6.68;3.20;;;;;;;2.17;68.86;100875.69;6378604;27;22096;-74
2023/03/01 05:26:21;;;;;;;3.30;2.20;;;;;;;2.16;68.74;100885.16;6401600;27;20091;-74
2023/03/01 05:29:27;;;;;;;5.25;2.40;;;;;;;2.26;69.12;100892.75;6401616;27;20038;-74
2023/03/01 05:32:31;;;;;;;5.40;2.78;;;;;;;2.30;69.51;100891.84;6361354;27;20051;-74
2023/03/01 05:35:33;;;;;;;3.92;2.75;;;;;;;2.26;68.77;100897.91;6353775;27;20050;-74
2023/03/01 05:38:36;;;;;;;4.43;2.50;;;;;;;2.40;69.26;100898.56;6374008;27;20091;-74
2023/03/01 05:41:36;;;;;;;12.40;3.03;;;;;;;2.44;69.72;100894.22;6366111;27;20084;-74
2023/03/01 05:44:38;;;;;;;2.58;1.90;;;;;;;2.27;69.46;100902.19;6356727;27;20054;-74
2023/03/01 05:47:43;;;;;;;4.65;2.53;;;;;;;2.51;69.15;100911.28;6372811;27;20448;-74
2023/03/01 05:50:47;;;;;;;6.40;3.28;;;;;;;2.54;70.67;100913.84;6349011;28;20464;-74
2023/03/01 05:53:48;;;;;;;9.75;3.45;;;;;;;2.53;69.04;100913.00;6347454;28;20449;-74
2023/03/01 05:56:49;;;;;;;7.07;3.53;;;;;;;2.58;68.80;100918.06;6347280;28;20050;-74
2023/03/01 05:59:52;;;;;;;4.35;2.67;;;;;;;2.63;67.74;100924.84;6346319;28;20399;-74
2023/03/01 06:02:54;;;;;;;9.48;2.95;;;;;;;2.66;67.93;100920.50;6348804;28;20048;-74
2023/03/01 06:05:58;;;;;;;5.57;3.17;;;;;;;2.57;68.70;100924.09;6348866;28;20116;-75
2023/03/01 06:08:59;;;;;;;4.18;2.45;;;;;;;2.59;69.26;100920.63;6350787;27;20306;-75
2023/03/01 06:11:59;;;;;;;11.00;3.92;;;;;;;2.44;68.77;100918.25;6373556;27;20038;-75
2023/03/01 06:15:01;;;;;;;7.10;4.47;;;;;;;2.57;68.74;100929.25;6364724;27;20518;-75
2023/03/01 06:18:02;;;;;;;5.17;3.07;;;;;;;2.49;68.36;100929.38;6371968;27;20464;-75
2023/03/01 06:21:04;;;;;;;5.78;3.38;;;;;;;2.62;68.85;100927.47;6372189;27;20275;-75
2023/03/01 06:24:09;;;;;;;5.65;2.85;;;;;;;2.52;69.55;100918.16;6374400;27;20106;-75
2023/03/01 06:27:09;;;;;;;4.32;2.08;;;;;;;2.51;69.00;100919.88;6372803;27;20050;-75
2023/03/01 06:30:13;;;;;;;5.50;2.90;;;;;;;2.42;69.67;100918.28;6374060;27;20136;-75
2023/03/01 06:33:24;;;;;;;4.30;2.60;;;;;;;2.57;69.29;100919.81;6369840;27;20035;-75
2023/03/01 06:36:27;;;;;;;3.58;2.47;;;;;;;2.67;69.22;100914.50;6373529;27;20071;-75
2023/03/01 06:39:28;;;;;;;9.85;3.15;;;;;;;2.70;68.71;100914.44;6372317;27;20122;-75
2023/03/01 06:42:29;;;;;;;7.28;2.13;;;;;;;2.72;69.63;100915.28;6373390;27;20062;-75
2023/03/01 06:45:30;;;;;;;5.78;2.83;;;;;;;2.79;68.60;100927.22;6372198;27;20406;-75
2023/03/01 06:48:31;;;;;;;6.28;2.38;;;;;;;2.97;69.52;100919.19;6373500;27;20046;-75
2023/03/01 06:51:31;;;;;;;3.28;2.20;;;;;;;2.86;68.55;100913.34;6373338;27;20046;-75
2023/03/01 06:54:32;;;;;;;3.13;2.35;;;;;;;3.08;68.02;100919.00;6372331;27;20043;-75
2023/03/01 06:57:33;;;;;;;5.05;3.15;;;;;;;2.96;68.40;100917.47;6372015;27;20411;-76
2023/03/01 07:00:34;;;;;;;5.80;3.00;;;;;;;2.90;68.09;100915.00;6372354;27;20092;-76
2023/03/01 07:03:35;;;;;;;31.52;3.83;;;;;;;3.03;68.32;100915.69;6372108;27;20043;-75
2023/03/01 07:06:36;;;;;;;5.90;3.28;;;;;;;3.19;67.66;100913.69;6373077;27;20043;-75
2023/03/01 07:09:37;;;;;;;3.75;2.42;;;;;;;3.27;67.92;100904.06;6371882;27;20403;-75
2023/03/01 07:12:37;;;;;;;5.50;3.33;;;;;;;3.21;67.31;100893.88;6372983;27;20483;-75
2023/03/01 07:15:40;;;;;;;6.30;3.00;;;;;;;3.37;67.37;100902.19;6373058;27;20046;-75
2023/03/01 07:18:41;;;;;;;7.63;3.40;;;;;;;3.51;67.37;100896.81;6371929;27;20051;-75
2023/03/01 07:21:42;;;;;;;4.95;3.25;;;;;;;3.54;67.67;100901.88;6373412;27;20483;-75
2023/03/01 07:24:46;;;;;;;3.47;2.38;;;;;;;3.71;68.36;100901.59;6373346;27;20095;-75
2023/03/01 07:27:54;;;;;;;5.18;2.58;;;;;;;3.59;66.70;100892.34;6371765;28;20124;-75
2023/03/01 07:30:55;;;;;;;4.20;3.28;;;;;;;3.68;66.69;100901.63;6373611;27;20066;-75
2023/03/01 07:33:56;;;;;;;9.02;2.67;;;;;;;3.71;66.35;100896.44;6372084;28;20497;-75
2023/03/01 07:36:57;;;;;;;1.92;1.80;;;;;;;3.87;66.11;100899.53;6372213;28;20523;-75
2023/03/01 07:39:57;;;;;;;4.95;2.75;;;;;;;3.88;65.95;100902.09;6372808;27;20042;-75
2023/03/01 07:42:58;;;;;;;12.40;5.75;;;;;;;4.15;65.40;100900.69;6371422;28;20552;-75
2023/03/01 07:46:02;;;;;;;8.98;4.00;;;;;;;4.29;65.18;100895.22;6366770;28;20046;-75
2023/03/01 07:49:04;;;;;;;2.90;2.05;;;;;;;4.50;64.98;100891.31;6369043;28;20065;-75
2023/03/01 07:52:05;;;;;;;4.85;2.90;;;;;;;4.52;63.77;100894.72;6371220;28;20372;-75
2023/03/01 07:55:06;;;;;;;9.45;3.97;;;;;;;4.50;63.74;100887.91;6372757;27;20039;-75
2023/03/01 07:58:07;;;;;;;6.20;2.50;;;;;;;4.53;63.51;100891.28;6372563;27;20039;-75
2023/03/01 08:01:13;;;;;;;3.03;1.83;;;;;;;4.35;62.67;100891.69;6371189;28;20047;-75
2023/03/01 08:04:14;;;;;;;5.80;2.88;;;;;;;4.36;63.40;100890.78;6372759;27;20035;-75
2023/03/01 08:07:15;;;;;;;2.75;1.90;;;;;;;4.45;62.92;100893.19;6371214;28;20049;-75
2023/03/01 08:10:16;;;;;;;5.50;2.45;;;;;;;4.57;62.79;100889.44;6372479;28;20040;-75
2023/03/01 08:13:22;;;;;;;8.02;2.88;;;;;;;4.76;62.34;100889.88;6371220;28;20047;-75
2023/03/01 08:16:23;;;;;;;4.85;2.67;;;;;;;4.64;62.19;100901.34;6372313;27;20047;-75
2023/03/01 08:19:24;;;;;;;3.30;2.38;;;;;;;4.97;62.29;100886.78;6371040;28;20483;-75
2023/03/01 08:22:25;;;;;;;5.35;2.50;;;;;;;5.07;62.67;100877.06;6372164;27;20122;-75
2023/03/01 08:25:25;;;;;;;2.92;2.45;;;;;;;5.06;61.12;100875.34;6375877;27;20045;-75
2023/03/01 08:28:26;;;;;;;4.78;2.25;;;;;;;5.20;61.15;100881.00;6376693;27;20047;-75
2023/03/01 08:31:32;;;;;;;5.80;3.25;;;;;;;5.40;61.23;100888.28;6375816;27;20498;-75
2023/03/01 08:34:35;;;;;;;5.15;2.97;;;;;;;5.42;61.27;100883.06;6375754;27;20084;-75
2023/03/01 08:37:36;;;;;;;4.22;2.78;;;;;;;5.56;59.97;100878.38;6375148;27;20087;-75
2023/03/01 08:40:40;;;;;;;7.43;2.65;;;;;;;6.05;62.13;100876.16;6375242;27;20039;-75
2023/03/01 08:43:41;;;;;;;4.75;2.92;;;;;;;6.00;59.37;100865.94;6374816;27;20043;-75
2023/03/01 08:46:43;;;;;;;7.13;2.70;;;;;;;5.96;58.35;100872.09;6374965;27;20054;-76
2023/03/01 08:49:44;;;;;;;5.85;3.17;;;;;;;6.02;58.55;100874.50;6376116;27;20046;-75
2023/03/01 08:52:44;;;;;;;6.10;3.20;;;;;;;6.35;57.30;100869.22;6376294;27;20534;-76
2023/03/01 08:55:45;;;;;;;8.02;3.45;;;;;;;6.65;56.93;100864.84;6374933;27;20043;-76
2023/03/01 08:58:50;;;;;;;10.35;3.28;;;;;;;7.01;57.26;100867.13;6374312;27;20088;-76
2023/03/01 09:01:51;;;;;;;2.53;2.00;;;;;;;7.12;55.82;100856.38;6375876;27;20073;-76
2023/03/01 09:04:54;;;;;;;4.85;2.72;;;;;;;7.36;56.23;100857.28;6375688;27;20448;-76
2023/03/01 09:07:57;;;;;;;4.35;2.75;;;;;;;7.21;56.00;100860.41;6375631;27;20055;-76
2023/03/01 09:10:57;;;;;;;4.82;2.90;;;;;;;7.16;55.98;100859.72;6375732;27;20035;-76
2023/03/01 09:14:00;;;;;;;6.35;2.47;;;;;;;7.18;54.60;100856.16;6374249;27;20053;-76
2023/03/01 09:17:03;;;;;;;6.50;3.15;;;;;;;7.65;55.98;100858.84;6374078;27;20035;-75
2023/03/01 09:20:05;;;;;;;7.57;2.95;;;;;;;7.64;56.43;100856.31;6374041;27;20039;-75
2023/03/01 09:23:06;;;;;;;5.25;2.80;;;;;;;7.71;55.91;100857.78;6374126;27;20050;-75
2023/03/01 09:26:28;;;;;;;5.70;3.13;;;;;;;7.55;53.74;100851.44;6374939;27;20403;-75
2023/03/01 09:29:29;;;;;;;4.45;2.90;;;;;;;7.76;53.97;100839.41;6374799;27;20051;-75
2023/03/01 09:32:30;;;;;;;4.50;2.88;;;;;;;7.77;53.67;100844.56;6373716;27;20050;-75
2023/03/01 09:35:31;;;;;;;5.73;3.80;;;;;;;8.10;51.87;100839.00;6375103;27;20479;-75
2023/03/01 09:38:34;;;;;;;6.00;2.25;;;;;;;8.36;53.55;100844.94;6373260;27;20046;-75
2023/03/01 09:42:01;;;;;;;3.00;2.28;;;;;;;8.17;52.75;100831.81;6374600;27;20099;-75
2023/03/01 09:45:11;;;;;;;6.55;3.22;;;;;;;8.57;53.00;100822.50;6374961;27;20039;-76
2023/03/01 09:48:18;;;;;;;5.13;2.85;;;;;;;8.99;51.95;100821.63;6373526;27;20064;-75
2023/03/01 09:51:26;;;;;;;3.08;2.22;;;;;;;8.92;50.53;100812.41;6373315;27;20043;-75
2023/03/01 09:54:27;;;;;;;5.40;2.75;;;;;;;8.85;50.50;100822.19;6373602;27;20087;-75
2023/03/01 09:57:57;;;;;;;6.07;2.75;;;;;;;8.82;49.87;100817.13;6373096;27;20035;-75
2023/03/01 10:01:10;;;;;;;3.60;2.45;;;;;;;9.01;50.15;100810.22;6374346;27;20051;-71
2023/03/01 10:04:20;;;;;;;5.13;2.63;;;;;;;9.11;51.94;100809.84;6373331;27;20039;-73
2023/03/01 10:07:26;;;;;;;4.22;2.85;;;;;;;9.47;51.04;100805.63;6372058;27;20045;-72
2023/03/01 10:10:37;;;;;;;11.48;3.15;;;;;;;9.78;49.39;100801.66;6372823;27;20039;-73
2023/03/01 10:13:48;;;;;;;4.97;2.67;;;;;;;9.68;49.26;100797.78;6372007;27;20047;-73
2023/03/01 10:17:02;;;;;;;3.70;2.63;;;;;;;9.68;48.91;100803.00;6372983;27;20046;-71
2023/03/01 10:20:29;;;;;;;5.75;2.55;;;;;;;9.84;50.02;100792.69;6372916;27;20043;-71
2023/03/01 10:23:34;;;;;;;4.90;3.33;;;;;;;10.02;49.50;100794.44;6373433;27;20467;-71
2023/03/01 10:27:05;;;;;;;3.92;2.60;;;;;;;10.26;48.07;100779.41;6371351;27;20050;-71
2023/03/01 10:30:19;;;;;;;6.38;2.67;;;;;;;10.17;48.73;100779.84;6371489;27;20035;-71
2023/03/01 10:33:28;;;;;;;5.05;2.88;;;;;;;10.47;48.14;100772.31;6372626;27;20122;-71
2023/03/01 10:36:32;;;;;;;8.43;4.30;;;;;;;10.63;46.77;100769.81;6372538;27;20055;-71
2023/03/01 10:39:34;;;;;;;5.20;2.80;;;;;;;10.79;48.81;100759.44;6372095;27;20043;-72
2023/03/01 10:42:46;;;;;;;4.57;2.78;;;;;;;10.50;47.75;100755.69;6372358;27;20043;-71
2023/03/01 10:45:47;;;;;;;5.97;2.78;;;;;;;10.88;48.14;100765.97;6372011;27;20043;-73
2023/03/01 10:49:36;;;;;;;6.03;3.13;;;;;;;11.04;47.86;100753.81;6370735;27;20038;-72
2023/03/01 10:52:41;;;;;;;7.53;2.90;;;;;;;11.07;48.26;100755.41;6358339;27;20491;-72
2023/03/01 10:55:44;;;;;;;9.10;2.63;;;;;;;11.17;46.04;100751.41;6371997;27;20046;-71
2023/03/01 10:59:05;;;;;;;3.95;2.50;;;;;;;11.24;47.28;100741.47;6372043;27;20039;-72
2023/03/01 11:02:17;;;;;;;4.38;2.40;;;;;;;11.33;46.60;100740.16;6370637;27;20066;-72
2023/03/01 11:05:23;;;;;;;4.07;2.17;;;;;;;11.97;46.83;100735.81;6370651;27;20039;-72
2023/03/01 11:08:35;;;;;;;5.97;2.92;;;;;;;12.01;46.78;100735.56;6370365;27;20049;-72
2023/03/01 11:11:36;;;;;;;5.55;3.13;;;;;;;12.18;45.80;100726.75;6371918;27;20376;-72
2023/03/01 11:14:40;;;;;;;4.00;2.58;;;;;;;12.01;46.14;100719.03;6371806;27;20042;-72
2023/03/01 11:17:43;;;;;;;4.32;2.45;;;;;;;11.57;46.32;100720.53;6370371;27;20039;-71
2023/03/01 11:20:48;;;;;;;4.50;2.65;;;;;;;12.09;46.83;100704.59;6371600;27;20122;-72
2023/03/01 11:23:48;;;;;;;2.63;1.73;;;;;;;12.16;46.10;100701.63;6370212;27;20039;-71
2023/03/01 11:26:54;;;;;;;4.68;2.72;;;;;;;12.32;46.87;100697.19;6371559;27;20409;-71
2023/03/01 11:30:30;;;;;;;4.78;2.60;;;;;;;11.77;45.09;100690.66;6369673;28;20118;-71
2023/03/01 11:34:09;;;;;;;6.13;3.30;;;;;;;12.08;46.21;100697.66;6371444;27;20045;-71
2023/03/01 11:37:23;;;;;;;2.35;1.83;;;;;;;11.96;46.00;100689.66;6370696;28;20510;-71
2023/03/01 11:40:33;;;;;;;4.57;2.17;;;;;;;12.26;46.96;100694.94;6371421;27;20039;-71
2023/03/01 11:44:08;;;;;;;3.67;2.38;;;;;;;12.66;45.15;100687.34;6370029;28;20496;-71
2023/03/01 11:47:31;;;;;;;7.18;3.35;;;;;;;12.52;45.39;100685.56;6370011;28;20043;-71
2023/03/01 11:50:43;;;;;;;3.35;2.40;;;;;;;12.35;44.62;100665.59;6371270;27;20535;-71
2023/03/01 11:53:56;;;;;;;10.07;4.60;;;;;;;12.53;45.98;100661.06;6370069;28;20075;-71
2023/03/01 11:57:00;;;;;;;3.88;2.58;;;;;;;12.82;44.64;100654.06;6370331;27;20043;-72
2023/03/01 12:00:22;;;;;;;7.07;3.85;;;;;;;12.58;44.94;100651.16;6376159;27;20035;-71
2023/03/01 12:03:33;;;;;;;10.85;5.32;;;;;;;12.69;45.05;100653.97;6375020;27;20376;-71
2023/03/01 12:06:40;;;;;;;7.47;4.30;;;;;;;12.72;45.51;100649.47;6374648;27;20043;-71
2023/03/01 12:09:59;;;;;;;6.18;2.92;;;;;;;12.57;45.92;100641.63;6374763;27;20039;-71
2023/03/01 12:13:22;;;;;;;8.45;3.20;;;;;;;12.73;45.33;100638.91;6375862;27;20402;-71
2023/03/01 12:16:25;;;;;;;3.35;1.90;;;;;;;12.23;44.90;100633.16;6374704;27;20475;-71
2023/03/01 12:20:13;;;;;;;3.40;2.35;;;;;;;12.65;44.97;100623.66;6374509;27;20062;-71
2023/03/01 12:23:39;;;;;;;5.20;2.45;;;;;;;12.54;44.79;100615.63;6355276;27;20419;-71
2023/03/01 12:27:06;;;;;;;4.20;2.28;;;;;;;13.05;45.25;100623.00;6375643;27;20047;-71
2023/03/01 12:30:42;;;;;;;2.28;1.63;;;;;;;13.12;44.69;100626.09;6375452;27;20054;-71
2023/03/01 12:33:43;;;;;;;6.72;2.33;;;;;;;12.85;44.83;100621.63;6342014;27;20062;-71
2023/03/01 12:36:52;;;;;;;4.05;2.30;;;;;;;12.77;44.77;100609.00;6373860;27;20039;-72
2023/03/01 12:40:17;;;;;;;4.57;2.35;;;;;;;12.67;45.33;100600.84;6374118;27;20035;-73
2023/03/01 12:43:50;;;;;;;3.55;2.10;;;;;;;12.77;44.61;100595.06;6373991;27;20079;-71
2023/03/01 12:47:18;;;;;;;4.63;2.40;;;;;;;12.79;44.70;100608.91;6375233;27;20039;-72
2023/03/01 12:50:40;;;;;;;4.90;2.42;;;;;;;13.19;45.23;100599.38;6374243;27;20499;-72
2023/03/01 12:53:47;;;;;;;2.72;1.70;;;;;;;12.92;45.28;100599.34;6375082;27;20063;-72
2023/03/01 12:56:52;;;;;;;4.25;2.53;;;;;;;12.98;44.50;100598.13;6373759;27;20078;-72
2023/03/01 13:00:31;;;;;;;3.55;1.80;;;;;;;12.67;44.35;100595.63;6374952;27;20046;-71
2023/03/01 13:04:05;;;;;;;3.40;2.10;;;;;;;12.69;44.62;100606.84;6374543;27;20074;-72
2023/03/01 13:07:19;;;;;;;4.97;2.42;;;;;;;13.05;44.82;100581.94;6373346;27;20047;-72
2023/03/01 13:10:30;;;;;;;5.68;2.33;;;;;;;12.80;44.29;100584.38;6375098;27;20047;-75
2023/03/01 13:13:31;;;;;;;5.00;1.90;;;;;;;12.34;44.99;100576.72;6375863;27;20432;-75
2023/03/01 13:16:32;;;;;;;5.75;3.40;;;;;;;12.46;45.11;100578.63;6374279;27;20114;-75
2023/03/01 13:19:35;;;;;;;4.03;2.55;;;;;;;12.70;44.94;100582.34;6375274;27;20113;-75
2023/03/01 13:22:36;;;;;;;4.03;2.47;;;;;;;12.77;45.28;100585.44;6375590;27;20035;-75
2023/03/01 13:25:58;;;;;;;4.85;3.00;;;;;;;12.81;45.52;100570.38;6374459;27;20039;-75
2023/03/01 13:29:00;;;;;;;;;;;;;;;12.75;44.72;100582.06;6375880;27;20051;-75
2023/03/01 13:32:03;;;;;;;3.83;2.17;;;;;;;13.00;45.09;100576.13;6374049;27;19926;-75
2023/03/01 13:35:19;;;;;;;3.55;2.03;;;;;;;12.54;44.48;100575.50;6374889;27;20514;-75
2023/03/01 13:38:38;;;;;;;2.72;1.98;;;;;;;12.47;44.53;100577.66;6373615;27;20038;-75
2023/03/01 13:41:38;;;;;;;3.42;1.83;;;;;;;12.30;46.28;100576.06;6375027;27;20395;-75
2023/03/01 13:56:08;;;;;;;4.22;2.65;;;;;;;12.45;43.95;100574.28;6293280;28;20900;-73
2023/03/01 13:59:18;;;;;;;4.93;2.40;;;;;;;12.57;44.89;100570.94;6292036;28;20045;-73
2023/03/01 14:02:19;;;;;;;4.40;2.00;;;;;;;12.30;44.72;100570.84;6293267;28;20392;-73
2023/03/01 14:05:20;;;;;;;3.55;2.15;;;;;;;12.34;44.22;100564.47;6293296;28;20124;-73
2023/03/01 14:08:24;;;;;;;3.92;2.25;;;;;;;12.19;45.29;100570.63;6291994;28;20116;-71
2023/03/01 14:11:49;;;;;;;6.03;2.35;;;;;;;12.25;45.87;100575.47;6291908;28;20041;-72
2023/03/01 14:14:59;;;;;;;3.40;1.75;;;;;;;11.91;43.93;100574.88;6291791;28;20048;-72
2023/03/01 14:18:29;;;;;;;5.55;2.65;;;;;;;11.93;43.11;100580.03;6291680;28;20048;-72
2023/03/01 14:37:29;;;;;;;2.80;2.10;;;;;;;12.04;42.96;100557.50;6264776;28;20381;-77
2023/03/01 14:40:36;;;;;;;2.65;1.88;;;;;;;11.94;41.85;100552.94;6251078;28;20045;-77
2023/03/01 14:43:43;;;;;;;3.22;1.58;;;;;;;11.52;41.37;100547.44;6311227;27;20044;-77
2023/03/01 14:46:44;;;;;;;3.00;1.70;;;;;;;11.37;41.51;100554.41;6274981;28;20093;-77
2023/03/01 14:49:49;;;;;;;2.33;1.45;;;;;;;11.48;41.08;100548.56;6273114;28;20111;-75
2023/03/01 14:52:54;;;;;;;3.13;1.50;;;;;;;11.55;42.28;100549.03;6272024;28;20476;-75
2023/03/01 14:56:17;;;;;;;2.58;1.63;;;;;;;11.44;41.15;100540.03;6272128;28;20045;-75
2023/03/01 14:59:24;;;;;;;4.10;1.80;;;;;;;11.45;41.63;100539.13;6271927;28;20551;-75
2023/03/01 15:02:30;;;;;;;3.75;2.22;;;;;;;11.48;40.59;100538.94;6289797;28;20040;-75